Columbia — WDD6400 — position and weather

sailwx.info

Track history (hours):
 
Tides and Currents Weather Stations Pressure Air Temp Water Temp Dewpoint Dewpoint Depression Visibility Wind Speed Wind Dir Waves Ship Positions

Columbia

Owner: OSG Ship Management Inc., Tampa, FL. More information available from US FCC via Universal Licensing System and Coast Guard Vessel Documentation Center.

Last reported at 2014-Oct-19 03:33 UTC. Time now 2014-Oct-25 16:13 UTC.
Position N 27°36' W 082°56'.

Length 194 m; draft 9.5 m.

Type: Towing. MMSI: 367172440.

Date/timePositionNaut miles runAvg speedWind from/ knotsBaromVisibWave heightAir tempDewpointWater temp
2014-Oct-19 03:33N 27°36' W 082°56'1010.0
2014-Oct-19 02:33N 27°36' W 082°45'8 8.2
2014-Oct-19 01:33N 27°39' W 082°36'9 8.9
2014-Oct-19 00:33N 27°47' W 082°31'8 8.5
2014-Oct-18 23:33N 27°54' W 082°26'2 1.5
2014-Oct-18 22:28N 27°56' W 082°27'0 0.0
2014-Oct-18 21:31N 27°56' W 082°27'1 1.2
2014-Oct-18 20:33N 27°57' W 082°27'0 0.0
2014-Oct-18 19:33N 27°57' W 082°27'0 0.0
2014-Oct-18 18:33N 27°57' W 082°27'0 0.0
2014-Oct-18 17:33N 27°57' W 082°27'0 0.0
2014-Oct-18 16:32N 27°57' W 082°27'0 0.0
2014-Oct-18 15:32N 27°57' W 082°27'0 0.0
2014-Oct-18 14:32N 27°57' W 082°27'1 0.8
2014-Oct-18 13:32N 27°56' W 082°27'0 0.0
2014-Oct-18 12:32N 27°56' W 082°27'0 0.0
2014-Oct-18 11:29N 27°56' W 082°27'0 0.0
2014-Oct-18 10:32N 27°56' W 082°27'0 0.0
2014-Oct-18 09:32N 27°56' W 082°27'0 0.0
2014-Oct-18 08:32N 27°56' W 082°27'0 0.0
2014-Oct-18 07:32N 27°56' W 082°27'0 0.0
2014-Oct-18 06:32N 27°56' W 082°27'0 0.0
2014-Oct-18 05:32N 27°56' W 082°27'0 0.0
2014-Oct-18 04:32N 27°56' W 082°27'0 0.0
2014-Oct-18 03:32N 27°56' W 082°27'0 0.0
2014-Oct-18 02:32N 27°56' W 082°27'0 0.0
2014-Oct-18 01:32N 27°56' W 082°27'0 0.0
2014-Oct-18 00:32N 27°56' W 082°27'0 0.0
2014-Oct-17 23:32N 27°56' W 082°27'0 0.0
2014-Oct-17 22:32N 27°56' W 082°27'0 0.3
2014-Oct-17 21:32N 27°56' W 082°27'0 0.0
2014-Oct-17 20:32N 27°56' W 082°27'0 0.1
2014-Oct-17 19:32N 27°56' W 082°27'2 1.8
2014-Oct-17 18:33N 27°54' W 082°26'8 7.8
2014-Oct-17 17:33N 27°47' W 082°30'8 8.5
2014-Oct-17 16:33N 27°40' W 082°36'9 8.7
2014-Oct-17 15:33N 27°36' W 082°44'9 9.2
2014-Oct-17 14:33N 27°36' W 082°55'9 9.3
2014-Oct-17 13:33N 27°36' W 083°05'  
Track history (hours):
 
Tides and Currents Weather Stations Pressure Air Temp Water Temp Dewpoint Dewpoint Depression Visibility Wind Speed Wind Dir Waves Ship Positions

Columbia

Owner: OSG Ship Management Inc., Tampa, FL. More information available from US FCC via Universal Licensing System and Coast Guard Vessel Documentation Center.

Last reported at 2014-Oct-19 03:33 UTC. Time now 2014-Oct-25 16:13 UTC.
Position N 27°36' W 082°56'.

Length 194 m; draft 9.5 m.

Type: Towing. MMSI: 367172440.

Date/timePositionNaut miles runAvg speedWind from/ knotsBaromVisibWave heightAir tempDewpointWater temp
2014-Oct-19 03:33N 27°36' W 082°56'1010.0
2014-Oct-19 02:33N 27°36' W 082°45'8 8.2
2014-Oct-19 01:33N 27°39' W 082°36'9 8.9
2014-Oct-19 00:33N 27°47' W 082°31'8 8.5
2014-Oct-18 23:33N 27°54' W 082°26'2 1.5
2014-Oct-18 22:28N 27°56' W 082°27'0 0.0
2014-Oct-18 21:31N 27°56' W 082°27'1 1.2
2014-Oct-18 20:33N 27°57' W 082°27'0 0.0
2014-Oct-18 19:33N 27°57' W 082°27'0 0.0
2014-Oct-18 18:33N 27°57' W 082°27'0 0.0
2014-Oct-18 17:33N 27°57' W 082°27'0 0.0
2014-Oct-18 16:32N 27°57' W 082°27'0 0.0
2014-Oct-18 15:32N 27°57' W 082°27'0 0.0
2014-Oct-18 14:32N 27°57' W 082°27'1 0.8
2014-Oct-18 13:32N 27°56' W 082°27'0 0.0
2014-Oct-18 12:32N 27°56' W 082°27'0 0.0
2014-Oct-18 11:29N 27°56' W 082°27'0 0.0
2014-Oct-18 10:32N 27°56' W 082°27'0 0.0
2014-Oct-18 09:32N 27°56' W 082°27'0 0.0
2014-Oct-18 08:32N 27°56' W 082°27'0 0.0
2014-Oct-18 07:32N 27°56' W 082°27'0 0.0
2014-Oct-18 06:32N 27°56' W 082°27'0 0.0
2014-Oct-18 05:32N 27°56' W 082°27'0 0.0
2014-Oct-18 04:32N 27°56' W 082°27'0 0.0
2014-Oct-18 03:32N 27°56' W 082°27'0 0.0
2014-Oct-18 02:32N 27°56' W 082°27'0 0.0
2014-Oct-18 01:32N 27°56' W 082°27'0 0.0
2014-Oct-18 00:32N 27°56' W 082°27'0 0.0
2014-Oct-17 23:32N 27°56' W 082°27'0 0.0
2014-Oct-17 22:32N 27°56' W 082°27'0 0.3
2014-Oct-17 21:32N 27°56' W 082°27'0 0.0
2014-Oct-17 20:32N 27°56' W 082°27'0 0.1
2014-Oct-17 19:32N 27°56' W 082°27'2 1.8
2014-Oct-17 18:33N 27°54' W 082°26'8 7.8
2014-Oct-17 17:33N 27°47' W 082°30'8 8.5
2014-Oct-17 16:33N 27°40' W 082°36'9 8.7
2014-Oct-17 15:33N 27°36' W 082°44'9 9.2
2014-Oct-17 14:33N 27°36' W 082°55'9 9.3
2014-Oct-17 13:33N 27°36' W 083°05'  

Dump ship's entire track history